Time;durP1;ratioP1;P1;durP2;ratioP2;P2;SDS_P1;SDS_P2;PMS_P1;PMS_P2;Temp;Humidity;BMP_temperature;BMP_pressure;BME280_temperature;BME280_humidity;BME280_pressure;Samples;Min_cycle;Max_cycle;Signal;HPM_P1;HPM_P2
2022/08/01 00:00:19;;;;;;;;;9.25;7.50;;;;;24.20;48.58;101236.16;5066838;28;74804;-54
2022/08/01 00:02:44;;;;;;;;;13.75;8.50;;;;;24.19;48.87;101231.78;5068395;27;61975;-55
2022/08/01 00:05:10;;;;;;;;;6.75;4.25;;;;;24.19;48.79;101236.28;5062926;28;60071;-54
2022/08/01 00:07:36;;;;;;;;;8.00;5.25;;;;;24.19;48.59;101238.97;5061828;28;45531;-53
2022/08/01 00:10:11;;;;;;;;;3.75;3.00;;;;;24.19;48.75;101236.28;5071353;28;46028;-53
2022/08/01 00:12:37;;;;;;;;;4.00;4.00;;;;;24.19;48.63;101233.63;5066054;28;45824;-54
2022/08/01 00:15:03;;;;;;;;;3.50;3.25;;;;;24.19;49.05;101241.66;5077302;27;45530;-54
2022/08/01 00:17:29;;;;;;;;;2.00;2.00;;;;;24.18;48.87;101235.41;5079448;27;46461;-54
2022/08/01 00:19:54;;;;;;;;;0.00;0.00;;;;;24.19;49.48;101237.13;5081930;27;69086;-55
2022/08/01 00:22:19;;;;;;;;;2.00;0.25;;;;;24.19;49.36;101234.47;5078495;27;69439;-51
2022/08/01 00:24:45;;;;;;;;;0.25;0.25;;;;;24.18;49.06;101232.75;5072633;28;45475;-53
2022/08/01 00:27:10;;;;;;;;;1.00;1.00;;;;;24.19;48.75;101234.47;5078344;27;66884;-53
2022/08/01 00:29:35;;;;;;;;;0.00;0.00;;;;;24.18;49.31;101231.91;5074001;27;63243;-52
2022/08/01 00:32:01;;;;;;;;;0.25;0.25;;;;;24.17;48.97;101228.38;5072798;27;48323;-52
2022/08/01 00:34:26;;;;;;;;;1.50;1.50;;;;;24.18;49.01;101230.06;5068934;28;45286;-53
2022/08/01 00:36:51;;;;;;;;;3.00;1.00;;;;;24.19;48.72;101217.56;5075554;27;45344;-56
2022/08/01 00:39:17;;;;;;;;;2.00;1.25;;;;;24.20;49.77;101220.09;5069839;27;65444;-54
2022/08/01 00:41:42;;;;;;;;;0.00;0.00;;;;;24.18;48.74;101226.56;5072967;27;54389;-51
2022/08/01 00:44:07;;;;;;;;;0.00;0.00;;;;;24.17;48.52;101212.34;5077157;28;51820;-52
2022/08/01 00:46:33;;;;;;;;;0.50;0.25;;;;;24.16;48.54;101215.97;5060178;27;45176;-54
2022/08/01 00:49:00;;;;;;;;;0.25;0.25;;;;;24.15;49.05;101211.63;5070250;27;45495;-53
2022/08/01 00:51:26;;;;;;;;;2.25;0.00;;;;;24.15;48.92;101214.28;5077075;28;45469;-53
2022/08/01 00:53:52;;;;;;;;;1.00;0.00;;;;;24.14;48.74;101212.56;5070393;28;45510;-53
2022/08/01 00:56:22;;;;;;;;;0.00;0.00;;;;;24.14;48.74;101214.41;5076014;27;45566;-51
2022/08/01 00:58:47;;;;;;;;;0.00;0.00;;;;;24.15;48.91;101211.63;5054558;27;47355;-54
2022/08/01 01:01:13;;;;;;;;;0.00;0.00;;;;;24.15;48.57;101214.28;5078131;27;45313;-53
2022/08/01 01:03:39;;;;;;;;;0.25;0.00;;;;;24.17;48.51;101208.78;5073206;27;45497;-54
2022/08/01 01:06:11;;;;;;;;;2.00;1.00;;;;;24.19;49.17;101210.41;5065554;28;67376;-54
2022/08/01 01:08:59;;;;;;;;;1.00;1.00;;;;;24.17;48.96;101204.31;5065886;28;46077;-53
2022/08/01 01:11:45;;;;;;;;;1.00;1.00;;;;;24.13;48.93;101210.84;5070913;28;45337;-52
2022/08/01 01:14:20;;;;;;;;;0.00;0.00;;;;;24.09;48.79;101204.03;5073678;27;45313;-54
2022/08/01 01:16:46;;;;;;;;;0.00;0.00;;;;;24.10;49.08;101210.25;5073300;27;45454;-52
2022/08/01 01:19:16;;;;;;;;;0.50;0.00;;;;;24.05;49.07;101203.44;5087940;27;61220;-53
2022/08/01 01:21:42;;;;;;;;;0.00;0.00;;;;;24.06;48.72;101206.94;5082909;27;45610;-53
2022/08/01 01:24:21;;;;;;;;;1.00;1.00;;;;;24.02;48.98;101208.16;5085630;27;45324;-52
2022/08/01 01:26:53;;;;;;;;;0.00;0.00;;;;;23.99;48.57;101201.25;5069665;27;46101;-54
2022/08/01 01:29:28;;;;;;;;;1.00;1.00;;;;;24.01;48.69;101204.66;5076706;27;45243;-52
2022/08/01 01:32:07;;;;;;;;;0.00;0.00;;;;;24.03;48.98;101205.38;5084578;27;45240;-54
2022/08/01 01:34:37;;;;;;;;;0.25;0.25;;;;;24.04;49.11;101204.38;5073037;27;45375;-50
2022/08/01 01:37:05;;;;;;;;;1.00;1.00;;;;;24.03;48.89;101205.38;5095137;27;45273;-51
2022/08/01 01:39:32;;;;;;;;;0.00;0.00;;;;;24.03;48.84;101205.38;5076004;28;46230;-54
2022/08/01 01:41:58;;;;;;;;;0.75;0.75;;;;;24.04;49.30;101204.38;5086146;27;45639;-54
2022/08/01 01:44:25;;;;;;;;;0.00;0.00;;;;;24.02;49.14;101202.81;5079903;27;45529;-54
2022/08/01 01:46:51;;;;;;;;;2.00;1.00;;;;;24.01;49.82;101195.75;5063973;28;45422;-54
2022/08/01 01:49:22;;;;;;;;;1.00;0.50;;;;;23.98;49.12;101198.69;5074710;27;46884;-53
2022/08/01 01:51:48;;;;;;;;;0.00;0.00;;;;;23.94;49.27;101197.19;5080588;27;45746;-54
2022/08/01 01:54:13;;;;;;;;;0.00;0.00;;;;;23.95;49.18;101199.75;5076338;27;45347;-51
2022/08/01 01:56:48;;;;;;;;;0.00;0.00;;;;;23.94;49.49;101205.22;5079292;27;66728;-54
2022/08/01 01:59:15;;;;;;;;;0.00;0.00;;;;;23.92;49.83;101200.00;5070523;27;46352;-50
2022/08/01 02:01:41;;;;;;;;;1.50;1.00;;;;;23.89;49.04;101192.22;5067529;27;45815;-51
2022/08/01 02:04:06;;;;;;;;;0.75;0.75;;;;;23.88;49.96;101187.81;5074667;28;67344;-54
2022/08/01 02:06:33;;;;;;;;;3.00;1.00;;;;;23.86;49.41;101189.75;5079797;27;67310;-53
2022/08/01 02:09:01;;;;;;;;;0.75;0.75;;;;;23.87;49.46;101188.81;5073629;27;45594;-54
2022/08/01 02:11:26;;;;;;;;;0.00;0.00;;;;;23.90;49.82;101198.41;5079003;28;63244;-54
2022/08/01 02:13:54;;;;;;;;;1.00;1.00;;;;;23.88;50.29;101188.66;5081630;27;45357;-53
2022/08/01 02:16:23;;;;;;;;;3.75;0.00;;;;;23.86;49.75;101190.59;5066823;28;45402;-54
2022/08/01 02:18:48;;;;;;;;;1.00;0.00;;;;;23.88;49.97;101195.84;5076225;27;45814;-54
2022/08/01 02:21:17;;;;;;;;;3.00;2.00;;;;;23.90;50.02;101193.06;5072282;28;70602;-54
2022/08/01 02:23:43;;;;;;;;;0.00;0.00;;;;;23.86;50.09;101185.25;5071511;27;45414;-50
2022/08/01 02:26:14;;;;;;;;;2.25;1.00;;;;;23.85;50.20;101191.59;5077116;27;45399;-54
2022/08/01 02:28:56;;;;;;;;;1.00;0.25;;;;;23.86;50.78;101187.94;5079191;27;46307;-52
2022/08/01 02:31:22;;;;;;;;;2.00;2.00;;;;;23.82;51.33;101199.00;5074135;27;45717;-53
2022/08/01 02:33:59;;;;;;;;;0.50;0.50;;;;;23.78;51.16;101203.69;5079375;27;45269;-54
2022/08/01 02:36:26;;;;;;;;;0.50;0.50;;;;;23.74;51.04;101202.19;5071799;27;45413;-51
2022/08/01 02:38:55;;;;;;;;;0.00;0.00;;;;;23.69;51.05;101201.69;5072801;28;47189;-54
2022/08/01 02:41:21;;;;;;;;;1.00;0.00;;;;;23.69;51.18;101207.03;5079138;28;45277;-54
2022/08/01 02:43:50;;;;;;;;;1.00;0.00;;;;;23.68;51.44;101198.16;5072955;28;45323;-54
2022/08/01 02:46:22;;;;;;;;;0.00;0.00;;;;;23.68;51.14;101200.00;5081711;27;45527;-53
2022/08/01 02:48:50;;;;;;;;;2.00;0.50;;;;;23.70;51.13;101198.91;5064657;28;46228;-54
2022/08/01 02:51:17;;;;;;;;;0.00;0.00;;;;;23.73;51.80;101200.50;5074423;28;45318;-53
2022/08/01 02:53:44;;;;;;;;;0.00;0.00;;;;;23.71;51.66;101194.44;5073187;27;62134;-53
2022/08/01 02:56:10;;;;;;;;;1.25;0.25;;;;;23.72;51.60;101198.78;5068833;28;69923;-52
2022/08/01 02:58:36;;;;;;;;;1.25;1.25;;;;;23.72;51.33;101185.44;5068148;27;73548;-52
2022/08/01 03:01:04;;;;;;;;;0.75;0.75;;;;;23.75;51.52;101189.72;5068791;27;45342;-50
2022/08/01 03:03:30;;;;;;;;;0.00;0.00;;;;;23.76;50.21;101200.28;5068160;28;45199;-53
2022/08/01 03:05:56;;;;;;;;;0.75;0.00;;;;;23.75;50.93;101187.03;5065611;28;68770;-51
2022/08/01 03:08:22;;;;;;;;;2.00;1.00;;;;;23.73;50.80;101195.16;5073056;27;69259;-54
2022/08/01 03:10:48;;;;;;;;;0.00;0.00;;;;;23.72;51.08;101192.59;5072143;27;61917;-52
2022/08/01 03:13:15;;;;;;;;;1.00;1.00;;;;;23.68;50.65;101191.97;5063258;28;66375;-53
2022/08/01 03:15:42;;;;;;;;;0.00;0.00;;;;;23.69;50.56;101191.88;5055139;28;63505;-51
2022/08/01 03:18:10;;;;;;;;;1.00;0.00;;;;;23.72;50.87;101180.09;5080090;28;45417;-49
2022/08/01 03:20:35;;;;;;;;;3.00;0.25;;;;;23.71;50.72;101189.09;5071060;27;45742;-49
2022/08/01 03:23:06;;;;;;;;;1.25;0.25;;;;;23.69;50.30;101188.31;5073970;28;45342;-51
2022/08/01 03:25:32;;;;;;;;;2.00;1.00;;;;;23.69;51.03;101199.00;5070461;28;45240;-54
2022/08/01 03:27:59;;;;;;;;;1.00;1.00;;;;;23.66;50.59;101196.59;5075675;28;46168;-53
2022/08/01 03:30:26;;;;;;;;;0.25;0.25;;;;;23.66;50.85;101199.25;5068453;27;45559;-51
2022/08/01 03:32:52;;;;;;;;;0.00;0.00;;;;;23.65;51.02;101200.22;5064917;28;45379;-51
2022/08/01 03:35:18;;;;;;;;;0.00;0.00;;;;;23.64;51.50;101198.53;5076599;27;73119;-51
2022/08/01 03:37:52;;;;;;;;;0.25;0.25;;;;;23.63;50.91;101200.31;5078291;27;46222;-54
2022/08/01 03:40:24;;;;;;;;;1.25;0.25;;;;;23.64;50.74;101199.38;5071817;27;45612;-52
2022/08/01 03:42:53;;;;;;;;;2.25;0.00;;;;;23.65;51.52;101205.56;5078447;27;45387;-49
2022/08/01 03:45:25;;;;;;;;;1.00;1.00;;;;;23.61;51.95;101204.09;5067400;28;45510;-51
2022/08/01 03:47:55;;;;;;;;;1.00;0.00;;;;;23.59;51.31;101195.34;5074572;28;45295;-53
2022/08/01 03:50:22;;;;;;;;;1.00;1.00;;;;;23.59;52.24;101206.03;5074814;27;45863;-54
2022/08/01 03:52:50;;;;;;;;;2.00;2.00;;;;;23.56;51.89;101200.91;5062403;28;56108;-53
2022/08/01 03:55:16;;;;;;;;;1.00;1.00;;;;;23.55;51.72;101207.22;5067770;28;45290;-50
2022/08/01 03:57:42;;;;;;;;;0.50;0.00;;;;;23.55;50.86;101204.53;5072496;28;47418;-54
2022/08/01 04:00:08;;;;;;;;;0.00;0.00;;;;;23.55;51.32;101207.22;5071777;28;45472;-52
2022/08/01 04:02:34;;;;;;;;;0.50;0.00;;;;;23.56;50.64;101207.09;5079486;27;45331;-52
2022/08/01 04:05:00;;;;;;;;;0.25;0.25;;;;;23.57;50.84;101200.81;5067537;28;45424;-50
2022/08/01 04:07:29;;;;;;;;;1.50;0.00;;;;;23.58;50.48;101197.16;5072486;28;46071;-54
2022/08/01 04:09:54;;;;;;;;;0.25;0.25;;;;;23.59;50.32;101201.53;5084500;27;45676;-51
2022/08/01 04:12:20;;;;;;;;;0.00;0.00;;;;;23.60;50.51;101194.38;5074346;27;45314;-53
2022/08/01 04:14:46;;;;;;;;;0.75;0.00;;;;;23.59;51.68;101196.19;5067053;28;45732;-53
2022/08/01 04:17:11;;;;;;;;;1.00;1.00;;;;;23.56;51.33;101187.56;5076236;27;46346;-53
2022/08/01 04:19:37;;;;;;;;;0.50;0.25;;;;;23.55;51.35;101188.50;5075289;28;45556;-53
2022/08/01 04:22:03;;;;;;;;;1.00;1.00;;;;;23.54;51.31;101186.81;5065282;27;45489;-54
2022/08/01 04:24:29;;;;;;;;;0.25;0.25;;;;;23.54;51.03;101184.16;5067126;28;45359;-54
2022/08/01 04:26:56;;;;;;;;;1.25;0.25;;;;;23.55;51.83;101192.06;5092787;27;47148;-54
2022/08/01 04:29:23;;;;;;;;;2.00;2.00;;;;;23.55;50.98;101184.03;5076150;27;45492;-53
2022/08/01 04:31:49;;;;;;;;;0.00;0.00;;;;;23.56;51.31;101182.22;5076139;27;45342;-52
2022/08/01 04:34:21;;;;;;;;;0.00;0.00;;;;;23.57;51.17;101179.44;5071474;28;45209;-54
2022/08/01 04:36:47;;;;;;;;;1.25;0.25;;;;;23.59;51.09;101179.31;5075280;27;46925;-53
2022/08/01 04:39:13;;;;;;;;;0.25;0.25;;;;;23.60;50.58;101178.34;5078481;27;45294;-53
2022/08/01 04:41:39;;;;;;;;;0.00;0.00;;;;;23.59;51.33;101182.00;5077517;27;45659;-53
2022/08/01 04:44:06;;;;;;;;;0.75;0.25;;;;;23.58;50.91;101182.94;5079853;27;45357;-53
2022/08/01 04:46:33;;;;;;;;;1.00;1.00;;;;;23.55;51.17;101175.16;5078764;27;46173;-53
2022/08/01 04:49:00;;;;;;;;;1.00;1.00;;;;;23.56;50.92;101182.22;5078857;27;45484;-52
2022/08/01 04:51:25;;;;;;;;;2.00;1.00;;;;;23.54;51.18;101176.97;5072655;27;45472;-51
2022/08/01 04:53:51;;;;;;;;;2.50;0.25;;;;;23.57;51.19;101190.13;5050038;28;45213;-54
2022/08/01 04:56:20;;;;;;;;;2.75;1.00;;;;;23.58;51.16;101188.28;5066018;28;45645;-52
2022/08/01 04:58:46;;;;;;;;;1.25;0.25;;;;;23.58;50.95;101191.81;5071739;28;45301;-53
2022/08/01 05:01:11;;;;;;;;;0.00;0.00;;;;;23.58;50.94;101186.47;5077575;27;45489;-52
2022/08/01 05:03:37;;;;;;;;;0.25;0.25;;;;;23.60;50.86;101194.38;5073512;27;45396;-52
2022/08/01 05:06:03;;;;;;;;;0.25;0.25;;;;;23.62;50.84;101197.78;5072383;27;68707;-53
2022/08/01 05:08:28;;;;;;;;;0.00;0.00;;;;;23.63;51.00;101205.69;5080893;27;45486;-52
2022/08/01 05:10:53;;;;;;;;;2.25;0.25;;;;;23.64;51.27;101204.72;5074018;28;51330;-53
2022/08/01 05:13:19;;;;;;;;;1.75;0.75;;;;;23.62;51.25;101203.97;5065583;28;63296;-50
2022/08/01 05:15:44;;;;;;;;;1.00;1.00;;;;;23.61;51.91;101212.94;5077142;27;48028;-52
2022/08/01 05:18:10;;;;;;;;;0.25;0.25;;;;;23.59;51.56;101211.38;5091676;27;46666;-54
2022/08/01 05:20:36;;;;;;;;;1.75;0.50;;;;;23.59;51.51;101214.91;5094133;27;66875;-52
2022/08/01 05:23:02;;;;;;;;;1.50;1.00;;;;;23.58;51.57;101215.00;5070246;27;45697;-52
2022/08/01 05:25:28;;;;;;;;;0.50;0.25;;;;;23.56;51.87;101217.78;5069708;27;47095;-54
2022/08/01 05:27:53;;;;;;;;;0.00;0.00;;;;;23.54;51.68;101216.22;5072903;28;45463;-39
2022/08/01 05:30:18;;;;;;;;;0.50;0.25;;;;;23.59;51.59;101222.06;5068924;27;67828;-39
2022/08/01 05:32:44;;;;;;;;;1.25;1.00;;;;;23.58;50.99;101215.00;5080328;27;69788;-40
2022/08/01 05:35:09;;;;;;;;;2.00;0.50;;;;;23.56;50.61;101212.44;5066567;27;46037;-39
2022/08/01 05:37:34;;;;;;;;;0.25;0.25;;;;;23.52;51.22;101208.31;5088978;27;55975;-39
2022/08/01 05:40:00;;;;;;;;;0.25;0.25;;;;;23.52;51.65;101210.13;5061930;27;67240;-39
2022/08/01 05:42:26;;;;;;;;;1.00;1.00;;;;;23.56;52.13;101214.28;5078999;28;45867;-39
2022/08/01 05:44:51;;;;;;;;;1.25;1.00;;;;;23.57;51.10;101221.31;5075069;27;46099;-39
2022/08/01 05:47:16;;;;;;;;;0.75;0.00;;;;;23.47;51.76;101221.16;5075500;27;45538;-40
2022/08/01 05:49:42;;;;;;;;;2.50;0.75;;;;;23.45;51.96;101213.25;5081289;27;45437;-39
2022/08/01 05:52:08;;;;;;;;;2.00;1.00;;;;;23.44;51.60;101216.03;5067852;28;45293;-39
2022/08/01 05:54:33;;;;;;;;;1.75;0.25;;;;;23.42;51.57;101224.13;5076523;27;58855;-39
2022/08/01 05:57:01;;;;;;;;;2.50;1.25;;;;;23.42;53.30;101223.31;5064826;28;66264;-39
2022/08/01 05:59:29;;;;;;;;;3.25;1.00;;;;;23.41;52.24;101222.47;5079783;27;45445;-39
2022/08/01 06:01:55;;;;;;;;;1.00;1.00;;;;;23.47;51.64;101226.50;5073036;27;45409;-39
2022/08/01 06:04:20;;;;;;;;;0.25;0.25;;;;;23.43;51.52;101231.22;5077689;27;48514;-39
2022/08/01 06:06:45;;;;;;;;;2.25;0.75;;;;;23.41;52.75;101235.81;5069930;27;52991;-39
2022/08/01 06:09:11;;;;;;;;;2.75;1.25;;;;;23.44;51.81;101230.25;5075522;27;62387;-40
2022/08/01 06:11:36;;;;;;;;;0.25;0.25;;;;;23.46;53.10;101227.44;5066661;28;45300;-41
2022/08/01 06:14:01;;;;;;;;;0.75;0.75;;;;;23.52;52.38;101226.16;5063607;27;67131;-41
2022/08/01 06:16:27;;;;;;;;;3.50;0.75;;;;;23.52;52.59;101229.69;5063557;28;66134;-43
2022/08/01 06:18:52;;;;;;;;;0.75;0.25;;;;;23.52;51.10;101226.16;5079968;27;45446;-41
2022/08/01 06:21:17;;;;;;;;;1.75;1.75;;;;;23.43;52.48;101231.22;5077254;27;45278;-41
2022/08/01 06:23:43;;;;;;;;;2.00;0.00;;;;;23.44;51.81;101224.03;5071055;27;56791;-41
2022/08/01 06:26:08;;;;;;;;;7.25;6.50;;;;;23.47;51.67;101226.50;5079943;27;58589;-41
2022/08/01 06:28:34;;;;;;;;;4.00;1.50;;;;;23.47;51.74;101232.66;5078124;27;45562;-40
2022/08/01 06:30:59;;;;;;;;;1.25;0.25;;;;;23.50;52.40;101240.47;5065247;27;67103;-40
2022/08/01 06:33:26;;;;;;;;;1.75;0.50;;;;;23.52;52.18;101237.69;5074064;27;47211;-40
2022/08/01 06:35:51;;;;;;;;;1.50;1.50;;;;;23.56;51.73;101235.66;5064906;27;45404;-39
2022/08/01 06:38:16;;;;;;;;;0.50;0.25;;;;;23.54;51.04;101237.59;5072469;28;67571;-39
2022/08/01 06:40:42;;;;;;;;;2.50;1.25;;;;;23.50;51.63;101234.28;5072938;27;52651;-50
2022/08/01 06:43:07;;;;;;;;;2.00;1.00;;;;;23.48;51.68;101230.88;5068357;27;71863;-50
2022/08/01 06:45:33;;;;;;;;;1.50;1.00;;;;;23.48;51.76;101238.91;5071938;27;45413;-53
2022/08/01 06:47:58;;;;;;;;;2.50;1.25;;;;;23.46;51.66;101236.31;5067883;28;45290;-52
2022/08/01 06:50:23;;;;;;;;;2.25;1.00;;;;;23.45;51.28;101236.44;5069853;28;45536;-53
2022/08/01 06:52:49;;;;;;;;;2.00;2.00;;;;;23.39;51.46;101235.06;5069963;27;65585;-50
2022/08/01 06:55:14;;;;;;;;;1.25;1.00;;;;;23.39;51.67;101235.06;5072503;27;45174;-51
2022/08/01 06:57:47;;;;;;;;;2.50;2.00;;;;;23.39;51.67;101236.88;5079985;27;45281;-52
2022/08/01 07:00:13;;;;;;;;;1.25;1.25;;;;;23.40;51.75;101236.75;5069110;27;45363;-50
2022/08/01 07:02:39;;;;;;;;;2.00;2.00;;;;;23.40;52.05;101239.44;5067232;28;46144;-52
2022/08/01 07:05:04;;;;;;;;;3.00;3.00;;;;;23.42;52.21;101242.00;5084246;27;45325;-54
2022/08/01 07:07:30;;;;;;;;;1.00;1.00;;;;;23.44;52.01;101240.06;5066260;28;45221;-50
2022/08/01 07:09:56;;;;;;;;;0.50;0.50;;;;;23.47;52.18;101239.84;5075432;27;45419;-49
2022/08/01 07:12:21;;;;;;;;;1.50;0.25;;;;;23.51;51.99;101238.66;5069062;28;45473;-51
2022/08/01 07:14:47;;;;;;;;;1.25;1.25;;;;;23.55;51.74;101236.59;5068000;27;45317;-51
2022/08/01 07:17:12;;;;;;;;;0.25;0.25;;;;;23.58;51.85;101237.22;5074450;27;66481;-49
2022/08/01 07:19:37;;;;;;;;;2.00;1.00;;;;;23.64;51.60;101233.28;5075796;27;57694;-51
2022/08/01 07:22:03;;;;;;;;;2.00;2.00;;;;;23.70;51.50;101238.97;5075009;27;46077;-52
2022/08/01 07:24:29;;;;;;;;;1.00;0.00;;;;;23.76;51.62;101242.16;5076158;27;45305;-50
2022/08/01 07:26:54;;;;;;;;;1.00;1.00;;;;;23.82;51.38;101241.75;5061674;28;45426;-50
2022/08/01 07:29:22;;;;;;;;;0.25;0.25;;;;;23.88;51.17;101235.94;5076525;27;45540;-50
2022/08/01 07:31:47;;;;;;;;;2.75;2.00;;;;;23.96;51.16;101249.59;5071017;27;45666;-50
2022/08/01 07:34:12;;;;;;;;;2.00;1.00;;;;;23.99;50.95;101254.72;5073761;27;45240;-55
2022/08/01 07:36:38;;;;;;;;;1.00;1.00;;;;;24.01;51.44;101250.09;5067497;27;63007;-50
2022/08/01 07:39:03;;;;;;;;;4.25;2.75;;;;;24.04;50.99;101240.97;5065649;27;63720;-51
2022/08/01 07:41:28;;;;;;;;;4.50;3.25;;;;;24.09;50.78;101244.16;5075859;27;53130;-55
2022/08/01 07:43:54;;;;;;;;;2.75;2.75;;;;;24.11;50.81;101244.88;5078078;28;56503;-51
2022/08/01 07:46:19;;;;;;;;;5.00;1.25;;;;;24.12;50.70;101256.47;5074689;28;55175;-52
2022/08/01 07:48:44;;;;;;;;;2.50;2.00;;;;;24.14;50.58;101252.69;5077912;27;45172;-54
2022/08/01 07:51:10;;;;;;;;;5.00;2.00;;;;;24.16;50.58;101261.44;5076097;27;67657;-51
2022/08/01 07:53:36;;;;;;;;;3.50;3.00;;;;;24.16;50.75;101252.56;5078477;28;45343;-54
2022/08/01 07:56:02;;;;;;;;;4.50;2.75;;;;;24.18;50.77;101267.50;5079501;28;45465;-55
2022/08/01 07:58:27;;;;;;;;;3.00;1.50;;;;;24.18;50.64;101266.69;5078524;27;45377;-54
2022/08/01 08:00:53;;;;;;;;;1.75;1.25;;;;;24.19;50.84;101271.06;5079143;27;45403;-52
2022/08/01 08:03:18;;;;;;;;;1.75;1.25;;;;;24.19;50.73;101266.56;5077037;27;64497;-55
2022/08/01 08:05:43;;;;;;;;;3.00;2.75;;;;;24.22;50.42;101262.78;5077049;27;64229;-54
2022/08/01 08:08:10;;;;;;;;;3.00;3.00;;;;;24.25;50.21;101265.22;5078934;27;55720;-49
2022/08/01 08:10:35;;;;;;;;;8.00;4.50;;;;;24.26;50.72;101262.44;5077487;27;46953;-53
2022/08/01 08:13:01;;;;;;;;;7.00;2.50;;;;;24.30;50.16;101262.22;5069228;27;51086;-53
2022/08/01 08:15:27;;;;;;;;;2.00;2.00;;;;;24.33;50.12;101272.66;5075968;28;45227;-54
2022/08/01 08:17:52;;;;;;;;;3.00;3.00;;;;;24.38;50.00;101260.66;5077600;27;45469;-54
2022/08/01 08:20:18;;;;;;;;;5.00;2.75;;;;;24.46;49.86;101262.72;5077682;27;66044;-53
2022/08/01 08:22:43;;;;;;;;;2.50;2.25;;;;;24.54;49.77;101265.72;5079180;27;45258;-54
2022/08/01 08:25:09;;;;;;;;;7.00;3.00;;;;;24.64;49.87;101255.13;5076777;27;45592;-54
2022/08/01 08:27:36;;;;;;;;;2.25;2.25;;;;;24.74;49.79;101265.97;5076759;27;45670;-52
2022/08/01 08:30:02;;;;;;;;;7.75;4.75;;;;;24.82;49.50;101260.84;5066903;27;46064;-54
2022/08/01 08:32:27;;;;;;;;;6.75;4.25;;;;;24.95;49.13;101266.09;5089655;27;45717;-53
2022/08/01 08:34:53;;;;;;;;;4.50;3.00;;;;;25.04;49.01;101253.78;5074616;28;45638;-51
2022/08/01 08:37:18;;;;;;;;;2.00;2.00;;;;;25.09;48.56;101264.97;5077403;27;55213;-53
2022/08/01 08:39:43;;;;;;;;;3.00;2.50;;;;;25.10;48.53;101261.34;5076621;27;62782;-53
2022/08/01 08:42:10;;;;;;;;;7.50;6.00;;;;;25.13;48.13;101255.75;5065889;28;45280;-53
2022/08/01 08:44:36;;;;;;;;;41.50;33.75;;;;;25.18;48.34;101257.06;5076572;27;45282;-54
2022/08/01 08:47:05;;;;;;;;;4.25;4.00;;;;;25.26;47.97;101251.13;5066369;27;45137;-53
2022/08/01 08:49:32;;;;;;;;;3.25;2.50;;;;;25.31;47.52;101251.59;5062645;27;46454;-53
2022/08/01 08:52:01;;;;;;;;;2.00;2.00;;;;;25.39;47.38;101238.44;5069301;28;45383;-54
2022/08/01 08:54:27;;;;;;;;;2.00;1.75;;;;;25.43;47.26;101243.53;5076813;28;45450;-50
2022/08/01 08:56:54;;;;;;;;;3.00;1.25;;;;;25.47;47.38;101240.47;5094653;27;45440;-51
2022/08/01 08:59:20;;;;;;;;;2.50;2.50;;;;;25.49;47.05;101243.88;5076122;27;46520;-52
2022/08/01 09:01:46;;;;;;;;;3.25;1.50;;;;;25.53;46.75;101242.66;5077266;27;45594;-52
2022/08/01 09:04:11;;;;;;;;;6.25;3.00;;;;;25.55;46.94;101230.00;5076799;28;45441;-52
2022/08/01 09:06:38;;;;;;;;;2.25;2.25;;;;;25.56;46.68;101229.00;5072212;28;45252;-51
2022/08/01 09:09:04;;;;;;;;;2.00;1.75;;;;;25.62;46.84;101235.69;5076055;28;46517;-53
2022/08/01 09:11:30;;;;;;;;;3.50;2.00;;;;;25.62;46.55;101246.41;5076859;27;45418;-54
2022/08/01 09:14:22;;;;;;;;;1.75;1.50;;;;;25.60;46.35;101252.88;5078021;28;45971;-52
2022/08/01 09:17:08;;;;;;;;;2.00;2.00;;;;;25.58;46.05;101263.72;5081793;27;45326;-53
2022/08/01 09:19:48;;;;;;;;;2.75;2.00;;;;;25.52;46.62;101259.72;5081909;27;45364;-54
2022/08/01 09:22:21;;;;;;;;;3.75;1.75;;;;;25.46;46.38;101264.72;5078572;27;45470;-53
2022/08/01 09:25:00;;;;;;;;;39.00;30.25;;;;;25.38;45.97;101268.88;5095728;27;45537;-49
2022/08/01 09:27:25;;;;;;;;;1.75;1.75;;;;;25.31;46.19;101266.81;5072349;27;45472;-55
2022/08/01 09:29:52;;;;;;;;;2.25;2.25;;;;;25.27;46.70;101271.59;5070427;27;45702;-54
2022/08/01 09:32:18;;;;;;;;;4.00;3.25;;;;;25.26;46.63;101261.84;5077609;27;45401;-52
2022/08/01 09:34:46;;;;;;;;;4.00;3.00;;;;;25.24;46.79;101261.06;5076540;27;45433;-54
2022/08/01 09:37:17;;;;;;;;;3.50;2.00;;;;;25.22;46.52;101264.88;5079869;28;45309;-55
2022/08/01 09:39:43;;;;;;;;;2.50;2.50;;;;;25.20;46.65;101265.84;5078115;28;46191;-53
2022/08/01 09:42:27;;;;;;;;;4.25;2.00;;;;;25.20;46.63;101260.47;5089815;27;45793;-53
2022/08/01 09:44:52;;;;;;;;;1.00;1.00;;;;;25.22;46.51;101263.03;5091847;27;45301;-53
2022/08/01 09:47:20;;;;;;;;;5.00;5.00;;;;;25.20;46.25;101259.63;5076731;27;66154;-54
2022/08/01 09:49:45;;;;;;;;;5.25;4.25;;;;;25.18;46.63;101250.88;5075253;28;46971;-51
2022/08/01 09:52:11;;;;;;;;;2.25;2.25;;;;;25.20;46.65;101265.00;5094078;27;45435;-54
2022/08/01 09:54:36;;;;;;;;;1.25;1.25;;;;;25.18;46.44;101265.09;5081522;27;45239;-54
2022/08/01 09:57:09;;;;;;;;;4.50;3.00;;;;;25.17;46.53;101278.63;5076094;27;73533;-54
2022/08/01 09:59:37;;;;;;;;;2.00;2.00;;;;;25.18;46.72;101281.19;5069885;28;46373;-53
2022/08/01 10:02:02;;;;;;;;;6.25;4.50;;;;;25.24;46.83;101268.28;5077710;27;45625;-53
2022/08/01 10:04:28;;;;;;;;;5.00;3.00;;;;;25.37;46.42;101264.50;5073190;27;45394;-52
2022/08/01 10:07:04;;;;;;;;;2.50;2.00;;;;;26.19;45.58;101267.63;5078442;27;45859;-53
2022/08/01 10:09:31;;;;;;;;;1.50;0.00;;;;;26.87;44.05;101263.53;5066259;28;46105;-53
2022/08/01 10:11:58;;;;;;;;;2.25;2.25;;;;;27.27;43.50;101268.09;5081018;27;45592;-54
2022/08/01 10:14:25;;;;;;;;;4.75;3.00;;;;;27.57;42.81;101265.47;5075906;27;45344;-54
2022/08/01 10:16:53;;;;;;;;;3.00;3.00;;;;;27.90;41.38;101255.31;5075842;27;45305;-53
2022/08/01 10:19:21;;;;;;;;;4.25;2.00;;;;;28.84;39.82;101260.81;5076506;27;46991;-55
2022/08/01 10:21:49;;;;;;;;;3.00;2.75;;;;;29.54;38.32;101254.94;5076600;27;45384;-53
2022/08/01 10:24:14;;;;;;;;;4.25;4.25;;;;;30.17;38.35;101267.50;5081357;27;45323;-54
2022/08/01 10:26:40;;;;;;;;;8.50;5.25;;;;;30.77;38.52;101271.28;5090844;27;69070;-53
2022/08/01 10:29:06;;;;;;;;;6.50;6.00;;;;;31.23;35.77;101271.84;5071287;28;57914;-54
2022/08/01 10:31:32;;;;;;;;;3.50;2.00;;;;;31.13;37.43;101266.59;5077238;27;45540;-53
2022/08/01 10:33:59;;;;;;;;;2.25;2.25;;;;;30.97;37.34;101269.22;5080982;27;45409;-54
2022/08/01 10:36:25;;;;;;;;;5.00;2.50;;;;;30.70;37.50;101267.53;5074768;27;45520;-54
2022/08/01 10:38:51;;;;;;;;;2.75;2.75;;;;;30.37;36.73;101268.19;5079874;27;73698;-54
2022/08/01 10:41:18;;;;;;;;;2.00;2.00;;;;;30.13;36.83;101255.31;5068675;27;45456;-55
2022/08/01 10:43:44;;;;;;;;;5.00;3.00;;;;;29.86;37.24;101259.00;5068453;28;45495;-55
2022/08/01 10:46:09;;;;;;;;;2.25;2.25;;;;;29.55;37.44;101264.72;5065356;28;45636;-53
2022/08/01 10:48:53;;;;;;;;;2.00;2.00;;;;;29.21;37.44;101265.34;5064812;28;45373;-53
2022/08/01 10:51:21;;;;;;;;;3.50;2.25;;;;;28.94;38.67;101263.50;5079843;27;45359;-52
2022/08/01 10:53:48;;;;;;;;;4.25;4.25;;;;;28.72;39.33;101265.56;5085132;27;45475;-51
2022/08/01 10:56:13;;;;;;;;;3.00;3.00;;;;;28.50;39.37;101269.41;5078910;28;45532;-53
2022/08/01 10:58:42;;;;;;;;;2.00;2.00;;;;;28.27;39.79;101263.50;5079136;28;45645;-53
2022/08/01 11:01:26;;;;;;;;;1.50;0.75;;;;;28.09;39.37;101262.56;5079212;27;45285;-54
2022/08/01 11:03:54;;;;;;;;;3.75;3.75;;;;;27.93;40.19;101260.44;5079723;27;45390;-56
2022/08/01 11:06:25;;;;;;;;;4.00;4.00;;;;;27.83;39.75;101257.69;5079071;27;45244;-56
2022/08/01 11:08:52;;;;;;;;;3.00;3.00;;;;;27.86;40.68;101257.44;5078649;27;46257;-54
2022/08/01 11:11:18;;;;;;;;;5.00;5.00;;;;;28.07;40.12;101262.69;5078991;27;45613;-54
2022/08/01 11:14:06;;;;;;;;;102.25;92.25;;;;;28.21;40.23;101264.09;5078669;27;45322;-51
2022/08/01 11:16:35;;;;;;;;;6.00;6.00;;;;;28.23;40.01;101262.09;5079433;27;45268;-54
2022/08/01 11:19:02;;;;;;;;;6.25;2.75;;;;;28.24;40.09;101262.94;5076000;28;45491;-54
2022/08/01 11:21:52;;;;;;;;;3.00;3.00;;;;;28.19;39.97;101276.84;5080015;27;45815;-55
2022/08/01 11:24:48;;;;;;;;;4.50;4.00;;;;;28.14;40.19;101265.66;5078328;28;45490;-53